createdAt,value
2017-11-26T00:01:05.280Z,98431.69
2017-11-26T00:03:35.285Z,98433.72
2017-11-26T00:06:05.476Z,98436.09
2017-11-26T00:08:35.346Z,98437.81
2017-11-26T00:11:08.905Z,98446.79
2017-11-26T00:13:38.784Z,98451.63
2017-11-26T00:16:09.065Z,98452.73
2017-11-26T00:21:13.777Z,98457.70
2017-11-26T00:23:44.212Z,98453.84
2017-11-26T00:26:14.490Z,98452.50
2017-11-26T00:28:44.961Z,98455.72
2017-11-26T00:31:14.845Z,98461.13
2017-11-26T00:33:44.782Z,98457.27
2017-11-26T00:36:15.105Z,98470.00
2017-11-26T00:44:01.709Z,98470.81
2017-11-26T00:46:32.180Z,98470.33
2017-11-26T00:49:02.998Z,98476.50
2017-11-26T00:51:33.957Z,98480.38
2017-11-26T00:54:04.781Z,98486.98
2017-11-26T00:56:36.587Z,98492.34
2017-11-26T01:01:42.890Z,98486.88
2017-11-26T01:04:13.209Z,98483.46
2017-11-26T01:06:45.013Z,98486.58
2017-11-26T01:11:52.276Z,98481.58
2017-11-26T01:14:25.316Z,98484.29
2017-11-26T01:16:55.334Z,98478.09
2017-11-26T01:19:27.807Z,98484.77
2017-11-26T01:21:58.004Z,98496.95
2017-11-26T01:24:31.298Z,98499.19
2017-11-26T01:27:01.891Z,98512.19
2017-11-26T01:32:06.683Z,98516.23
2017-11-26T01:34:37.026Z,98517.13
2017-11-26T01:42:21.511Z,98528.20
2017-11-26T01:44:53.998Z,98517.03
2017-11-26T01:47:24.146Z,98520.25
2017-11-26T01:49:54.567Z,98524.84
2017-11-26T01:54:58.808Z,98534.92
2017-11-26T02:00:05.225Z,98538.63
2017-11-26T02:07:45.608Z,98536.50
2017-11-26T02:10:16.217Z,98535.70
2017-11-26T02:12:48.974Z,98540.60
2017-11-26T02:15:21.037Z,98531.39
2017-11-26T02:17:52.109Z,98537.34
2017-11-26T02:20:22.613Z,98548.59
2017-11-26T02:22:52.911Z,98555.32
2017-11-26T02:25:23.628Z,98555.01
2017-11-26T02:27:53.503Z,98559.17
2017-11-26T02:30:23.131Z,98565.00
2017-11-26T02:33:03.877Z,98573.53
2017-11-26T02:35:41.569Z,98573.19
2017-11-26T02:45:53.567Z,98591.14
2017-11-26T02:48:24.253Z,98585.75
2017-11-26T02:53:29.404Z,98582.23
2017-11-26T02:58:32.929Z,98575.27
2017-11-26T03:01:03.761Z,98568.95
2017-11-26T03:03:35.512Z,98578.52
2017-11-26T03:06:05.944Z,98581.95
2017-11-26T03:11:10.459Z,98578.48
2017-11-26T03:13:41.120Z,98570.16
2017-11-26T03:18:45.372Z,98587.67
2017-11-26T03:23:49.157Z,98601.34
2017-11-26T03:26:19.706Z,98622.87
2017-11-26T03:28:50.149Z,98625.34
2017-11-26T03:31:23.932Z,98619.30
2017-11-26T03:33:54.245Z,98629.35
2017-11-26T03:36:24.235Z,98635.94
2017-11-26T03:38:54.565Z,98638.92
2017-11-26T03:41:24.749Z,98641.27
2017-11-26T03:43:54.292Z,98651.22
2017-11-26T03:46:29.028Z,98655.63
2017-11-26T03:48:58.900Z,98645.58
2017-11-26T03:51:29.994Z,98641.81
2017-11-26T03:54:02.329Z,98633.70
2017-11-26T03:56:32.321Z,98637.20
2017-11-26T03:59:02.515Z,98637.44
2017-11-26T04:09:18.105Z,98643.09
2017-11-26T04:11:48.379Z,98646.78
2017-11-26T04:14:21.326Z,98663.19
2017-11-26T04:16:51.207Z,98680.32
2017-11-26T04:19:22.695Z,98683.71
2017-11-26T04:21:53.186Z,98695.50
2017-11-26T04:26:56.872Z,98696.52
2017-11-26T04:32:03.611Z,98706.66
2017-11-26T04:34:37.572Z,98717.31
2017-11-26T04:39:47.316Z,98724.17
2017-11-26T04:42:17.204Z,98741.70
2017-11-26T04:44:47.973Z,98737.34
2017-11-26T04:47:18.553Z,98744.09
2017-11-26T04:49:48.430Z,98761.79
2017-11-26T04:52:20.256Z,98776.03
2017-11-26T04:54:50.651Z,98776.58
2017-11-26T04:57:20.664Z,98791.83
2017-11-26T04:59:50.295Z,98783.11
2017-11-26T05:02:20.040Z,98793.58
2017-11-26T05:04:51.137Z,98803.60
2017-11-26T05:07:25.549Z,98805.84
2017-11-26T05:09:57.809Z,98807.51
2017-11-26T05:12:31.089Z,98806.58
2017-11-26T05:15:03.163Z,98812.01
2017-11-26T05:17:35.945Z,98822.30
2017-11-26T05:20:07.956Z,98830.31
2017-11-26T05:22:41.981Z,98832.75
2017-11-26T05:27:48.519Z,98842.86
2017-11-26T05:30:30.879Z,98860.28
2017-11-26T05:33:03.426Z,98846.12
2017-11-26T05:35:34.430Z,98853.52
2017-11-26T05:38:04.186Z,98853.39
2017-11-26T05:40:42.316Z,98854.72
2017-11-26T05:43:14.485Z,98848.15
2017-11-26T05:45:44.423Z,98853.47
2017-11-26T05:48:14.311Z,98855.22
2017-11-26T05:50:44.372Z,98855.30
2017-11-26T05:53:14.175Z,98867.12
2017-11-26T05:55:43.990Z,98878.55
2017-11-26T05:58:13.722Z,98888.79
2017-11-26T06:00:42.970Z,98900.07
2017-11-26T06:03:12.752Z,98911.10
2017-11-26T06:05:43.871Z,98907.19
2017-11-26T06:08:13.570Z,98911.40
2017-11-26T06:10:43.433Z,98911.16
2017-11-26T06:13:20.733Z,98911.57
2017-11-26T06:15:52.988Z,98911.53
2017-11-26T06:18:25.978Z,98910.00
2017-11-26T06:20:57.628Z,98910.70
2017-11-26T06:23:27.884Z,98914.30
2017-11-26T06:28:40.849Z,98930.02
2017-11-26T06:31:14.715Z,98932.49
2017-11-26T06:33:45.019Z,98938.84
2017-11-26T06:36:14.884Z,98935.19
2017-11-26T06:38:44.692Z,98942.50
2017-11-26T06:41:14.272Z,98942.99
2017-11-26T06:43:44.220Z,98937.52
2017-11-26T06:46:13.791Z,98949.66
2017-11-26T06:48:43.560Z,98947.69
2017-11-26T06:51:13.305Z,98940.84
2017-11-26T06:53:43.411Z,98952.55
2017-11-26T06:56:13.206Z,98952.36
2017-11-26T06:58:43.036Z,98959.84
2017-11-26T07:01:12.582Z,98957.61
2017-11-26T07:03:42.491Z,98957.29
2017-11-26T07:06:12.602Z,98959.48
2017-11-26T07:08:42.410Z,98963.55
2017-11-26T07:11:12.233Z,98968.99
2017-11-26T07:13:41.450Z,98975.48
2017-11-26T07:16:11.504Z,98981.15
2017-11-26T07:18:40.978Z,98990.18
2017-11-26T07:21:25.963Z,98986.42
2017-11-26T07:23:56.691Z,98982.02
2017-11-26T07:26:29.733Z,98977.09
2017-11-26T07:28:59.535Z,98984.38
2017-11-26T07:31:29.275Z,98977.37
2017-11-26T07:33:59.211Z,98980.02
2017-11-26T07:36:30.350Z,98985.13
2017-11-26T07:39:01.064Z,98985.57
2017-11-26T07:46:57.095Z,98991.26
2017-11-26T07:55:55.891Z,99003.63
2017-11-26T07:58:25.747Z,99005.11
2017-11-26T08:00:55.617Z,99009.22
2017-11-26T08:03:25.389Z,99015.89
2017-11-26T08:05:55.220Z,99013.05
2017-11-26T08:08:25.794Z,99033.39
2017-11-26T08:10:55.680Z,99041.62
2017-11-26T08:13:25.585Z,99040.13
2017-11-26T08:15:58.563Z,99049.79
2017-11-26T08:21:09.492Z,99049.12
2017-11-26T08:23:41.435Z,99053.91
2017-11-26T08:53:08.653Z,99102.42
2017-11-26T08:58:24.086Z,99115.88
2017-11-26T09:00:55.441Z,99122.50
2017-11-26T09:03:29.481Z,99117.48
2017-11-26T09:06:00.422Z,99121.27
2017-11-26T09:08:54.271Z,99122.96
2017-11-26T09:11:25.854Z,99126.23
2017-11-26T09:13:55.520Z,99120.63
2017-11-26T09:16:26.714Z,99120.80
2017-11-26T09:19:00.165Z,99113.61
2017-11-26T09:21:33.301Z,99113.85
2017-11-26T09:24:06.404Z,99122.41
2017-11-26T09:26:39.820Z,99126.79
2017-11-26T09:29:13.247Z,99123.39
2017-11-26T09:31:46.423Z,99125.64
2017-11-26T09:34:20.826Z,99128.41
2017-11-26T09:36:55.557Z,99124.70
2017-11-26T09:39:29.213Z,99128.97
2017-11-26T09:41:58.992Z,99131.64
2017-11-26T09:44:28.706Z,99133.07
2017-11-26T09:46:58.405Z,99132.41
2017-11-26T09:49:28.224Z,99120.12
2017-11-26T09:51:58.558Z,99115.02
2017-11-26T09:54:29.128Z,99104.86
2017-11-26T09:56:59.202Z,99118.55
2017-11-26T09:59:28.996Z,99114.67
2017-11-26T10:01:58.744Z,99112.92
2017-11-26T10:04:28.575Z,99111.20
2017-11-26T10:06:58.352Z,99110.20
2017-11-26T10:09:28.253Z,99118.05
2017-11-26T10:12:00.750Z,99120.72
2017-11-26T10:14:33.685Z,99121.80
2017-11-26T10:17:03.589Z,99115.16
2017-11-26T10:19:33.383Z,99115.44
2017-11-26T10:22:03.296Z,99123.34
2017-11-26T10:24:33.920Z,99124.02
2017-11-26T10:27:04.092Z,99136.02
2017-11-26T10:29:33.579Z,99136.31
2017-11-26T10:32:05.394Z,99141.92
2017-11-26T10:34:35.333Z,99137.20
2017-11-26T10:37:05.883Z,99134.78
2017-11-26T10:39:35.974Z,99135.06
2017-11-26T10:42:05.856Z,99130.38
2017-11-26T10:44:35.217Z,99133.48
2017-11-26T10:47:04.876Z,99136.09
2017-11-26T10:49:35.199Z,99136.61
2017-11-26T10:52:05.305Z,99133.24
2017-11-26T10:54:34.734Z,99137.77
2017-11-26T10:57:05.632Z,99139.63
2017-11-26T10:59:35.531Z,99137.55
2017-11-26T11:02:05.434Z,99143.75
2017-11-26T11:07:16.866Z,99139.63
2017-11-26T11:09:46.592Z,99142.30
2017-11-26T11:12:15.988Z,99148.05
2017-11-26T11:14:45.692Z,99143.19
2017-11-26T11:17:15.078Z,99144.75
2017-11-26T11:19:45.120Z,99153.23
2017-11-26T11:22:14.508Z,99143.88
2017-11-26T11:24:44.241Z,99146.78
2017-11-26T11:27:14.007Z,99143.42
2017-11-26T11:29:43.537Z,99152.83
2017-11-26T11:32:13.299Z,99141.30
2017-11-26T11:34:43.051Z,99145.50
2017-11-26T11:37:12.821Z,99145.68
2017-11-26T11:39:42.596Z,99151.67
2017-11-26T11:42:12.306Z,99138.95
2017-11-26T11:44:42.405Z,99137.34
2017-11-26T11:47:12.196Z,99137.36
2017-11-26T11:49:41.986Z,99140.13
2017-11-26T11:52:11.909Z,99141.48
2017-11-26T11:54:41.470Z,99137.16
2017-11-26T11:57:10.873Z,99136.78
2017-11-26T11:59:40.296Z,99148.46
2017-11-26T12:02:09.691Z,99144.94
2017-11-26T12:04:39.470Z,99150.30
2017-11-26T12:07:09.538Z,99153.45
2017-11-26T12:09:39.253Z,99153.56
2017-11-26T12:12:09.060Z,99154.05
2017-11-26T12:14:38.497Z,99160.47
2017-11-26T12:17:07.923Z,99152.45
2017-11-26T12:19:37.396Z,99146.14
2017-11-26T12:22:06.764Z,99147.89
2017-11-26T12:24:36.163Z,99150.05
2017-11-26T12:27:05.585Z,99152.32
2017-11-26T12:29:34.845Z,99142.69
2017-11-26T12:32:03.819Z,99154.48
2017-11-26T12:34:33.250Z,99144.58
2017-11-26T12:37:02.438Z,99150.66
2017-11-26T12:39:31.835Z,99148.42
2017-11-26T12:42:01.228Z,99148.52
2017-11-26T12:44:30.614Z,99153.58
2017-11-26T12:46:59.977Z,99150.75
2017-11-26T12:49:29.402Z,99154.98
2017-11-26T12:51:58.786Z,99145.95
2017-11-26T12:57:03.707Z,99148.34
2017-11-26T12:59:33.105Z,99154.75
2017-11-26T13:02:02.519Z,99158.11
2017-11-26T13:04:31.906Z,99162.49
2017-11-26T13:07:01.304Z,99160.73
2017-11-26T13:09:30.496Z,99167.37
2017-11-26T13:11:59.937Z,99171.53
2017-11-26T13:14:29.384Z,99171.81
2017-11-26T13:17:03.087Z,99177.87
2017-11-26T13:19:32.559Z,99169.14
2017-11-26T13:22:01.957Z,99174.12
2017-11-26T13:24:31.207Z,99171.26
2017-11-26T13:27:00.492Z,99173.77
2017-11-26T13:29:30.606Z,99170.48
2017-11-26T13:32:00.036Z,99164.45
2017-11-26T13:34:29.459Z,99170.02
2017-11-26T13:36:58.856Z,99171.99
2017-11-26T13:39:28.251Z,99167.83
2017-11-26T13:41:57.644Z,99166.98
2017-11-26T13:44:27.061Z,99169.09
2017-11-26T13:49:51.317Z,99168.40
2017-11-26T13:52:24.651Z,99174.34
2017-11-26T13:54:54.244Z,99171.52
2017-11-26T13:57:23.791Z,99169.60
2017-11-26T13:59:53.377Z,99173.41
2017-11-26T14:02:23.658Z,99175.98
2017-11-26T14:04:53.261Z,99176.72
2017-11-26T14:07:22.912Z,99173.64
2017-11-26T14:09:52.214Z,99175.06
2017-11-26T14:12:22.009Z,99169.97
2017-11-26T14:14:51.618Z,99173.34
2017-11-26T14:17:21.152Z,99167.25
2017-11-26T14:19:50.905Z,99176.81
2017-11-26T14:22:20.707Z,99173.89
2017-11-26T14:24:50.307Z,99176.17
2017-11-26T14:27:20.037Z,99175.56
2017-11-26T14:29:50.041Z,99179.19
2017-11-26T14:32:19.530Z,99176.87
2017-11-26T14:34:48.926Z,99178.62
2017-11-26T14:37:18.590Z,99181.80
2017-11-26T14:39:48.153Z,99187.86
2017-11-26T14:42:17.435Z,99183.45
2017-11-26T14:44:46.672Z,99187.66
2017-11-26T14:47:16.167Z,99186.53
2017-11-26T14:49:45.815Z,99193.84
2017-11-26T14:52:16.039Z,99192.00
2017-11-26T14:54:45.119Z,99191.01
2017-11-26T14:57:14.444Z,99191.17
2017-11-26T14:59:46.042Z,99186.31
2017-11-26T15:02:15.596Z,99184.89
2017-11-26T15:04:45.161Z,99192.58
2017-11-26T15:07:14.578Z,99191.40
2017-11-26T15:09:43.807Z,99187.69
2017-11-26T15:12:13.226Z,99190.97
2017-11-26T15:14:42.520Z,99194.37
2017-11-26T15:17:11.785Z,99186.75
2017-11-26T15:19:40.840Z,99186.02
2017-11-26T15:22:10.065Z,99185.14
2017-11-26T15:24:39.285Z,99188.94
2017-11-26T15:27:08.691Z,99181.07
2017-11-26T15:29:38.046Z,99180.30
2017-11-26T15:32:07.468Z,99182.76
2017-11-26T15:34:36.895Z,99184.23
2017-11-26T15:37:06.060Z,99188.69
2017-11-26T15:39:35.317Z,99189.10
2017-11-26T15:42:04.705Z,99188.31
2017-11-26T15:44:34.590Z,99194.53
2017-11-26T15:47:03.784Z,99201.51
2017-11-26T15:49:33.230Z,99196.50
2017-11-26T15:52:02.623Z,99198.31
2017-11-26T15:54:32.106Z,99197.14
2017-11-26T15:57:01.345Z,99196.92
2017-11-26T15:59:31.187Z,99189.71
2017-11-26T16:02:00.455Z,99194.70
2017-11-26T16:04:29.727Z,99191.14
2017-11-26T16:06:59.476Z,99194.88
2017-11-26T16:09:28.842Z,99191.80
2017-11-26T16:11:58.588Z,99201.61
2017-11-26T16:14:28.006Z,99199.53
2017-11-26T16:16:57.719Z,99202.36
2017-11-26T16:19:31.412Z,99203.36
2017-11-26T16:22:00.839Z,99210.31
2017-11-26T16:24:31.143Z,99220.23
2017-11-26T16:27:00.865Z,99218.42
2017-11-26T16:29:30.297Z,99223.20
2017-11-26T16:32:00.047Z,99213.86
2017-11-26T16:34:29.428Z,99217.01
2017-11-26T16:36:59.860Z,99223.28
2017-11-26T16:39:29.574Z,99221.93
2017-11-26T16:41:58.887Z,99229.38
2017-11-26T16:44:28.307Z,99237.77
2017-11-26T16:46:57.755Z,99238.31
2017-11-26T16:49:26.926Z,99242.05
2017-11-26T16:51:56.676Z,99245.16
2017-11-26T16:54:26.128Z,99250.00
2017-11-26T16:56:55.727Z,99257.36
2017-11-26T16:59:25.217Z,99258.48
2017-11-26T17:01:54.590Z,99258.48
2017-11-26T17:04:23.803Z,99254.79
2017-11-26T17:06:53.029Z,99263.75
2017-11-26T17:09:22.222Z,99272.28
2017-11-26T17:11:51.424Z,99275.80
2017-11-26T17:14:20.822Z,99279.70
2017-11-26T17:16:58.257Z,99281.41
2017-11-26T17:19:27.788Z,99281.27
2017-11-26T17:21:57.299Z,99283.13
2017-11-26T17:24:26.691Z,99280.85
2017-11-26T17:26:56.436Z,99281.16
2017-11-26T17:29:25.901Z,99279.38
2017-11-26T17:31:55.376Z,99283.91
2017-11-26T17:34:24.747Z,99287.89
2017-11-26T17:36:54.465Z,99296.86
2017-11-26T17:39:23.863Z,99297.52
2017-11-26T17:41:53.854Z,99306.38
2017-11-26T17:44:23.062Z,99309.28
2017-11-26T17:46:52.477Z,99308.01
2017-11-26T17:49:21.868Z,99310.09
2017-11-26T17:51:51.281Z,99308.70
2017-11-26T17:54:20.673Z,99311.47
2017-11-26T17:56:50.828Z,99316.34
2017-11-26T17:59:20.603Z,99320.66
2017-11-26T18:01:50.336Z,99317.44
2017-11-26T18:04:21.325Z,99310.64
2017-11-26T18:06:51.038Z,99318.64
2017-11-26T18:09:20.742Z,99316.64
2017-11-26T18:11:50.271Z,99317.89
2017-11-26T18:14:19.824Z,99319.21
2017-11-26T18:16:49.573Z,99322.89
2017-11-26T18:19:19.347Z,99308.22
2017-11-26T18:21:49.153Z,99316.33
2017-11-26T18:24:18.905Z,99312.50
2017-11-26T18:26:48.629Z,99321.30
2017-11-26T18:29:18.345Z,99324.82
2017-11-26T18:31:48.063Z,99325.53
2017-11-26T18:34:17.838Z,99330.72
2017-11-26T18:36:47.572Z,99334.34
2017-11-26T18:39:17.461Z,99332.39
2017-11-26T18:41:47.290Z,99332.94
2017-11-26T18:44:17.036Z,99338.97
2017-11-26T18:46:51.810Z,99342.09
2017-11-26T18:49:21.792Z,99341.37
2017-11-26T18:51:51.548Z,99340.09
2017-11-26T18:54:21.304Z,99346.05
2017-11-26T18:56:50.999Z,99339.57
2017-11-26T18:59:20.744Z,99343.11
2017-11-26T19:01:50.451Z,99340.87
2017-11-26T19:04:20.181Z,99334.78
2017-11-26T19:06:49.890Z,99341.23
2017-11-26T19:09:19.654Z,99340.48
2017-11-26T19:11:53.554Z,99340.34
2017-11-26T19:14:23.323Z,99340.42
2017-11-26T19:16:53.090Z,99351.45
2017-11-26T19:19:22.834Z,99352.36
2017-11-26T19:21:52.634Z,99348.53
2017-11-26T19:24:22.676Z,99351.11
2017-11-26T19:26:52.525Z,99352.87
2017-11-26T19:29:22.299Z,99347.39
2017-11-26T19:31:52.134Z,99343.04
2017-11-26T19:34:22.107Z,99344.77
2017-11-26T19:36:51.809Z,99341.16
2017-11-26T19:39:21.515Z,99334.40
2017-11-26T19:41:51.260Z,99334.13
2017-11-26T19:44:21.183Z,99335.39
2017-11-26T19:46:50.906Z,99336.36
2017-11-26T19:49:20.518Z,99341.73
2017-11-26T19:51:50.223Z,99334.45
2017-11-26T19:54:19.917Z,99344.55
2017-11-26T19:56:49.445Z,99348.17
2017-11-26T19:59:23.010Z,99347.66
2017-11-26T20:01:52.936Z,99346.19
2017-11-26T20:04:22.723Z,99352.00
2017-11-26T20:06:52.313Z,99350.75
2017-11-26T20:09:21.917Z,99354.63
2017-11-26T20:11:51.489Z,99355.16
2017-11-26T20:14:21.228Z,99356.27
2017-11-26T20:16:50.978Z,99355.38
2017-11-26T20:19:20.698Z,99362.23
2017-11-26T20:21:50.431Z,99356.38
2017-11-26T20:24:20.149Z,99358.22
2017-11-26T20:26:49.858Z,99362.52
2017-11-26T20:29:19.398Z,99365.89
2017-11-26T20:31:49.159Z,99368.45
2017-11-26T20:34:19.058Z,99362.70
2017-11-26T20:36:49.001Z,99369.23
2017-11-26T20:39:18.772Z,99367.84
2017-11-26T20:41:48.486Z,99369.09
2017-11-26T20:44:18.202Z,99374.59
2017-11-26T20:46:48.940Z,99383.05
2017-11-26T20:49:20.093Z,99383.34
2017-11-26T20:51:50.417Z,99384.69
2017-11-26T20:54:20.153Z,99378.64
2017-11-26T20:56:49.868Z,99381.06
2017-11-26T20:59:19.674Z,99380.98
2017-11-26T21:01:49.563Z,99376.80
2017-11-26T21:04:19.305Z,99373.30
2017-11-26T21:06:49.151Z,99377.91
2017-11-26T21:09:18.916Z,99376.47
2017-11-26T21:11:48.743Z,99373.98
2017-11-26T21:14:18.356Z,99380.72
2017-11-26T21:16:48.460Z,99379.95
2017-11-26T21:19:18.318Z,99380.25
2017-11-26T21:21:47.889Z,99373.75
2017-11-26T21:24:17.442Z,99381.55
2017-11-26T21:26:47.291Z,99373.33
2017-11-26T21:29:17.323Z,99378.48
2017-11-26T21:31:47.049Z,99384.13
2017-11-26T21:34:16.850Z,99380.89
2017-11-26T21:36:46.711Z,99383.61
2017-11-26T21:39:16.425Z,99381.39
2017-11-26T21:41:46.136Z,99375.87
2017-11-26T21:44:15.863Z,99368.20
2017-11-26T21:46:45.601Z,99368.70
2017-11-26T21:49:15.411Z,99372.98
2017-11-26T21:51:44.988Z,99373.80
2017-11-26T21:54:15.071Z,99373.77
2017-11-26T21:56:44.799Z,99381.99
2017-11-26T21:59:14.606Z,99373.63
2017-11-26T22:01:44.321Z,99379.08
2017-11-26T22:04:14.036Z,99379.91
2017-11-26T22:06:43.791Z,99377.64
2017-11-26T22:09:13.520Z,99382.10
2017-11-26T22:11:43.367Z,99378.64
2017-11-26T22:14:13.094Z,99382.16
2017-11-26T22:16:42.818Z,99380.27
2017-11-26T22:19:12.756Z,99388.19
2017-11-26T22:21:42.519Z,99379.77
2017-11-26T22:24:12.236Z,99385.64
2017-11-26T22:26:41.959Z,99382.46
2017-11-26T22:29:11.679Z,99385.17
2017-11-26T22:31:41.999Z,99383.84
2017-11-26T22:34:11.737Z,99383.02
2017-11-26T22:36:41.442Z,99377.67
2017-11-26T22:39:11.149Z,99381.69
2017-11-26T22:41:40.864Z,99389.27
2017-11-26T22:44:10.581Z,99386.64
2017-11-26T22:46:40.320Z,99385.53
2017-11-26T22:49:10.135Z,99381.35
2017-11-26T22:51:39.868Z,99377.50
2017-11-26T22:54:09.637Z,99376.20
2017-11-26T22:56:44.544Z,99372.68
2017-11-26T22:59:15.674Z,99374.95
2017-11-26T23:01:45.592Z,99369.18
2017-11-26T23:04:15.318Z,99369.16
2017-11-26T23:06:44.862Z,99363.64
2017-11-26T23:09:14.569Z,99366.06
2017-11-26T23:11:44.290Z,99369.19
2017-11-26T23:14:14.006Z,99365.73
2017-11-26T23:16:43.731Z,99361.55
2017-11-26T23:19:13.452Z,99361.30
2017-11-26T23:21:42.857Z,99348.41
2017-11-26T23:24:12.770Z,99355.28
2017-11-26T23:26:42.491Z,99351.08
2017-11-26T23:29:12.192Z,99350.80
2017-11-26T23:31:41.930Z,99357.12
2017-11-26T23:34:11.651Z,99355.19
2017-11-26T23:36:41.363Z,99359.37
2017-11-26T23:39:11.083Z,99361.58
2017-11-26T23:41:40.782Z,99350.98
2017-11-26T23:44:10.491Z,99361.25
2017-11-26T23:46:40.214Z,99356.88
2017-11-26T23:49:09.930Z,99356.98
2017-11-26T23:51:39.639Z,99350.59
2017-11-26T23:54:09.178Z,99355.21
2017-11-26T23:56:38.712Z,99355.05
2017-11-26T23:59:08.743Z,99359.11
